Time;durP1;ratioP1;P1;durP2;ratioP2;P2;SDS_P1;SDS_P2;PMS_P1;PMS_P2;Temp;Humidity;BMP_temperature;BMP_pressure;BME280_temperature;BME280_humidity;BME280_pressure;Samples;Min_cycle;Max_cycle;Signal;HPM_P1;HPM_P2
2023/06/16 00:01:31;;;;;;;;;;;17.40;99.90;;;;;;5094464;28;20503;-64
2023/06/16 00:04:00;;;;;;;;;;;17.40;99.90;;;;;;5094687;28;20025;-62
2023/06/16 00:06:29;;;;;;;;;;;17.40;99.90;;;;;;5094479;28;20016;-65
2023/06/16 00:08:56;;;;;;;;;;;17.40;99.90;;;;;;5094522;28;20024;-64
2023/06/16 00:11:22;;;;;;;;;;;17.40;99.90;;;;;;5094793;28;20324;-62
2023/06/16 00:13:48;;;;;;;;;;;17.40;99.90;;;;;;5094544;28;20020;-64
2023/06/16 00:16:19;;;;;;;;;;;17.40;99.90;;;;;;5094215;28;20420;-62
2023/06/16 00:18:45;;;;;;;;;;;17.30;99.90;;;;;;5094429;28;19981;-65
2023/06/16 00:21:13;;;;;;;;;;;17.30;99.90;;;;;;5094325;28;19985;-63
2023/06/16 00:23:38;;;;;;;;;;;17.40;99.90;;;;;;5094281;28;20080;-65
2023/06/16 00:26:04;;;;;;;;;;;17.30;99.90;;;;;;5094348;28;20154;-64
2023/06/16 00:28:29;;;;;;;;;;;17.30;99.90;;;;;;5094368;28;19982;-64
2023/06/16 00:30:55;;;;;;;;;;;17.30;99.90;;;;;;5093896;28;19981;-64
2023/06/16 00:33:20;;;;;;;;;;;17.30;99.90;;;;;;5093574;28;19986;-64
2023/06/16 00:35:46;;;;;;;;;;;17.30;99.90;;;;;;5094165;28;19985;-64
2023/06/16 00:38:12;;;;;;;;;;;17.20;99.90;;;;;;5094079;28;20329;-63
2023/06/16 00:40:37;;;;;;;;;;;17.20;99.90;;;;;;5094411;28;20355;-63
2023/06/16 00:43:03;;;;;;;;;;;17.20;99.90;;;;;;5094239;28;19993;-65
2023/06/16 00:45:29;;;;;;;;;;;17.30;99.90;;;;;;5093763;28;20030;-65
2023/06/16 00:47:56;;;;;;;;;;;17.30;99.90;;;;;;5094107;28;20079;-65
2023/06/16 00:50:23;;;;;;;;;;;17.30;99.90;;;;;;5094063;28;19988;-64
2023/06/16 00:52:49;;;;;;;;;;;17.20;99.90;;;;;;5093916;28;20072;-65
2023/06/16 00:55:15;;;;;;;;;;;17.30;99.90;;;;;;5093814;28;20035;-65
2023/06/16 00:57:41;;;;;;;;;;;17.20;99.90;;;;;;5093960;28;19985;-64
2023/06/16 01:00:11;;;;;;;;;;;17.20;99.90;;;;;;5093640;28;20072;-63
2023/06/16 01:02:38;;;;;;;;;;;17.20;99.90;;;;;;5093788;28;20395;-63
2023/06/16 01:05:05;;;;;;;;;;;17.20;99.90;;;;;;5093824;28;20007;-65
2023/06/16 01:07:52;;;;;;;;;;;17.20;99.90;;;;;;5093753;28;20060;-65
2023/06/16 01:10:20;;;;;;;;;;;17.20;99.90;;;;;;5093851;28;20009;-63
2023/06/16 01:12:52;;;;;;;;;;;17.20;99.90;;;;;;5093779;28;20474;-64
2023/06/16 01:15:20;;;;;;;;;;;17.20;99.90;;;;;;5093432;28;19981;-63
2023/06/16 01:17:47;;;;;;;;;;;17.10;99.90;;;;;;5093777;28;20432;-64
2023/06/16 01:20:29;;;;;;;;;;;17.00;99.90;;;;;;5093876;28;20079;-65
2023/06/16 01:23:15;;;;;;;;;;;17.00;99.90;;;;;;5093735;28;19981;-63
2023/06/16 01:25:42;;;;;;;;;;;16.90;99.90;;;;;;5093032;28;20021;-65
2023/06/16 01:28:08;;;;;;;;;;;16.90;99.90;;;;;;5093513;28;19981;-62
2023/06/16 01:30:34;;;;;;;;;;;16.90;99.90;;;;;;5093516;28;19992;-65
2023/06/16 01:33:01;;;;;;;;;;;16.90;99.90;;;;;;5093462;28;19985;-65
2023/06/16 01:35:27;;;;;;;;;;;17.00;99.90;;;;;;5093640;28;19985;-62
2023/06/16 01:37:53;;;;;;;;;;;17.00;99.90;;;;;;5093602;28;19981;-65
2023/06/16 01:40:19;;;;;;;;;;;17.00;99.90;;;;;;5093458;28;20017;-65
2023/06/16 01:42:48;;;;;;;;;;;17.00;99.90;;;;;;5093282;28;20081;-64
2023/06/16 01:45:17;;;;;;;;;;;17.00;99.90;;;;;;5096217;28;20455;-63
2023/06/16 01:47:43;;;;;;;;;;;17.00;99.90;;;;;;5097252;28;19995;-64
2023/06/16 01:50:10;;;;;;;;;;;17.00;99.90;;;;;;5097231;28;20465;-64
2023/06/16 01:52:36;;;;;;;;;;;17.00;99.90;;;;;;5097344;28;20072;-63
2023/06/16 01:55:01;;;;;;;;;;;17.00;99.90;;;;;;5097417;28;20021;-66
2023/06/16 01:57:27;;;;;;;;;;;17.00;99.90;;;;;;5097026;28;19991;-65
2023/06/16 01:59:56;;;;;;;;;;;17.00;99.90;;;;;;5097043;28;20035;-63
2023/06/16 02:02:25;;;;;;;;;;;17.00;99.90;;;;;;5096875;28;20112;-64
2023/06/16 02:04:51;;;;;;;;;;;17.00;99.90;;;;;;5097024;28;19988;-63
2023/06/16 02:07:21;;;;;;;;;;;16.90;99.90;;;;;;5096846;28;20016;-65
2023/06/16 02:09:48;;;;;;;;;;;16.90;99.90;;;;;;5096866;28;19985;-63
2023/06/16 02:12:13;;;;;;;;;;;17.00;99.90;;;;;;5096682;28;19981;-63
2023/06/16 02:14:40;;;;;;;;;;;17.00;99.90;;;;;;5096838;28;19981;-63
2023/06/16 02:17:07;;;;;;;;;;;17.00;99.90;;;;;;5096744;28;19981;-64
2023/06/16 02:19:33;;;;;;;;;;;16.90;99.90;;;;;;5096832;28;19992;-65
2023/06/16 02:21:59;;;;;;;;;;;16.90;99.90;;;;;;5096660;28;19985;-63
2023/06/16 02:24:25;;;;;;;;;;;16.90;99.90;;;;;;5096667;28;19985;-63
2023/06/16 02:26:50;;;;;;;;;;;16.90;99.90;;;;;;5096203;28;20009;-64
2023/06/16 02:29:16;;;;;;;;;;;16.80;99.90;;;;;;5096686;28;19985;-64
2023/06/16 02:31:48;;;;;;;;;;;16.80;99.90;;;;;;5096498;28;20343;-64
2023/06/16 02:34:14;;;;;;;;;;;16.80;99.90;;;;;;5096406;28;20051;-63
2023/06/16 02:36:40;;;;;;;;;;;16.90;99.90;;;;;;5096432;28;19981;-63
2023/06/16 02:39:06;;;;;;;;;;;16.90;99.90;;;;;;5096396;28;19981;-65
2023/06/16 02:41:33;;;;;;;;;;;16.80;99.90;;;;;;5096022;28;20008;-64
2023/06/16 02:43:59;;;;;;;;;;;16.80;99.90;;;;;;5096467;28;19981;-65
2023/06/16 02:46:25;;;;;;;;;;;16.80;99.90;;;;;;5096192;28;20371;-64
2023/06/16 02:48:50;;;;;;;;;;;16.70;99.90;;;;;;5096069;28;19985;-63
2023/06/16 02:51:16;;;;;;;;;;;16.70;99.90;;;;;;5096234;28;20126;-63
2023/06/16 02:53:45;;;;;;;;;;;16.70;99.90;;;;;;5096079;28;20035;-65
2023/06/16 02:56:11;;;;;;;;;;;16.70;99.90;;;;;;5094969;28;19988;-65
2023/06/16 02:58:37;;;;;;;;;;;16.80;99.90;;;;;;5096263;28;19985;-64
2023/06/16 03:01:04;;;;;;;;;;;16.80;99.90;;;;;;5096001;28;20323;-62
2023/06/16 03:03:30;;;;;;;;;;;16.80;99.90;;;;;;5095678;28;20479;-64
2023/06/16 03:05:58;;;;;;;;;;;16.80;99.90;;;;;;5095769;28;20348;-65
2023/06/16 03:08:24;;;;;;;;;;;16.70;99.90;;;;;;5095841;28;19989;-64
2023/06/16 03:10:51;;;;;;;;;;;16.70;99.90;;;;;;5095701;28;19989;-63
2023/06/16 03:13:17;;;;;;;;;;;16.70;99.90;;;;;;5096062;28;20068;-64
2023/06/16 03:15:43;;;;;;;;;;;16.70;99.90;;;;;;5095701;28;20018;-63
2023/06/16 03:18:09;;;;;;;;;;;16.70;99.90;;;;;;5095608;28;20079;-64
2023/06/16 03:20:35;;;;;;;;;;;16.70;99.90;;;;;;5095492;28;20023;-63
2023/06/16 03:23:01;;;;;;;;;;;16.70;99.90;;;;;;5095611;28;19996;-65
2023/06/16 03:25:26;;;;;;;;;;;16.80;99.90;;;;;;5095462;28;19992;-64
2023/06/16 03:27:52;;;;;;;;;;;16.80;99.90;;;;;;5095340;28;19988;-63
2023/06/16 03:30:18;;;;;;;;;;;16.80;99.90;;;;;;5095311;28;19981;-63
2023/06/16 03:32:44;;;;;;;;;;;16.80;99.90;;;;;;5095340;28;20452;-63
2023/06/16 03:35:09;;;;;;;;;;;16.90;99.90;;;;;;5095173;28;20344;-64
2023/06/16 03:37:35;;;;;;;;;;;16.90;99.90;;;;;;5095118;28;20024;-65
2023/06/16 03:40:05;;;;;;;;;;;16.90;99.90;;;;;;5095179;28;20359;-63
2023/06/16 03:42:34;;;;;;;;;;;16.90;99.90;;;;;;5095059;28;19996;-65
2023/06/16 03:45:00;;;;;;;;;;;17.00;99.90;;;;;;5095152;28;20076;-64
2023/06/16 03:47:26;;;;;;;;;;;17.00;99.90;;;;;;5095003;28;20100;-64
2023/06/16 03:49:52;;;;;;;;;;;16.90;99.90;;;;;;5095189;28;19985;-63
2023/06/16 03:52:17;;;;;;;;;;;17.00;99.90;;;;;;5095093;28;20447;-64
2023/06/16 03:54:43;;;;;;;;;;;16.90;99.90;;;;;;5094707;28;20064;-63
2023/06/16 03:57:09;;;;;;;;;;;16.90;99.90;;;;;;5094756;28;19990;-63
2023/06/16 03:59:35;;;;;;;;;;;16.90;99.90;;;;;;5095067;28;19985;-64
2023/06/16 04:02:06;;;;;;;;;;;16.90;99.90;;;;;;5094551;28;20340;-64
2023/06/16 04:04:32;;;;;;;;;;;16.90;99.90;;;;;;5094625;28;19985;-65
2023/06/16 04:06:58;;;;;;;;;;;16.90;99.90;;;;;;5094350;28;20391;-65
2023/06/16 04:09:24;;;;;;;;;;;16.90;99.90;;;;;;5094622;28;20032;-62
2023/06/16 04:11:49;;;;;;;;;;;16.90;99.90;;;;;;5094631;28;20016;-63
2023/06/16 04:14:15;;;;;;;;;;;17.00;99.90;;;;;;5094509;28;19989;-64
2023/06/16 04:16:42;;;;;;;;;;;17.00;99.90;;;;;;5093642;28;19997;-65
2023/06/16 04:19:08;;;;;;;;;;;17.00;99.90;;;;;;5094457;28;19985;-63
2023/06/16 04:21:33;;;;;;;;;;;16.90;99.90;;;;;;5094139;28;20075;-64
2023/06/16 04:23:59;;;;;;;;;;;16.90;99.90;;;;;;5094378;28;20068;-64
2023/06/16 04:26:26;;;;;;;;;;;16.90;99.90;;;;;;5094447;28;20055;-64
2023/06/16 04:28:54;;;;;;;;;;;16.90;99.90;;;;;;5094480;28;20396;-66
2023/06/16 04:31:21;;;;;;;;;;;16.80;99.90;;;;;;5094378;28;20427;-64
2023/06/16 04:33:47;;;;;;;;;;;16.80;99.90;;;;;;5094483;28;19992;-63
2023/06/16 04:36:13;;;;;;;;;;;16.80;99.90;;;;;;5093941;28;20356;-63
2023/06/16 04:38:38;;;;;;;;;;;16.70;99.90;;;;;;5094147;28;19981;-64
2023/06/16 04:41:04;;;;;;;;;;;16.70;99.90;;;;;;5094137;28;19989;-63
2023/06/16 04:43:30;;;;;;;;;;;16.80;99.90;;;;;;5094156;28;20068;-65
2023/06/16 04:45:57;;;;;;;;;;;16.80;99.90;;;;;;5094094;28;20532;-64
2023/06/16 04:48:24;;;;;;;;;;;16.80;99.90;;;;;;5094013;28;20031;-63
2023/06/16 04:50:49;;;;;;;;;;;16.90;99.90;;;;;;5093539;28;20423;-65
2023/06/16 04:53:15;;;;;;;;;;;16.90;99.90;;;;;;5093845;28;19981;-65
2023/06/16 04:55:41;;;;;;;;;;;17.00;99.90;;;;;;5093933;28;19993;-64
2023/06/16 04:58:06;;;;;;;;;;;16.80;99.90;;;;;;5093946;28;19981;-62
2023/06/16 05:00:32;;;;;;;;;;;16.80;99.90;;;;;;5094372;28;19982;-64
2023/06/16 05:02:58;;;;;;;;;;;16.90;99.90;;;;;;5093148;28;20085;-64
2023/06/16 05:05:24;;;;;;;;;;;16.90;99.90;;;;;;5093522;28;20458;-65
2023/06/16 05:07:51;;;;;;;;;;;17.00;99.90;;;;;;5093226;28;20367;-65
2023/06/16 05:10:17;;;;;;;;;;;16.90;99.90;;;;;;5093648;28;20008;-63
2023/06/16 05:12:42;;;;;;;;;;;17.00;99.90;;;;;;5093704;28;19980;-63
2023/06/16 05:15:09;;;;;;;;;;;17.00;99.90;;;;;;5093594;28;19981;-65
2023/06/16 05:17:35;;;;;;;;;;;17.00;99.90;;;;;;5093158;28;20067;-63
2023/06/16 05:20:01;;;;;;;;;;;17.00;99.90;;;;;;5089349;28;19993;-63
2023/06/16 05:22:27;;;;;;;;;;;17.10;99.90;;;;;;5084328;28;19997;-66
2023/06/16 05:24:53;;;;;;;;;;;17.00;99.90;;;;;;5084478;28;19989;-64
2023/06/16 05:27:22;;;;;;;;;;;17.00;99.90;;;;;;5087173;28;20013;-64
2023/06/16 05:29:49;;;;;;;;;;;17.00;99.90;;;;;;5080345;28;20398;-63
2023/06/16 05:32:15;;;;;;;;;;;17.10;99.90;;;;;;5087375;28;20081;-62
2023/06/16 05:34:41;;;;;;;;;;;17.10;99.90;;;;;;5086841;28;20106;-63
2023/06/16 05:37:06;;;;;;;;;;;17.00;99.90;;;;;;5080436;28;20068;-65
2023/06/16 05:39:32;;;;;;;;;;;17.00;99.90;;;;;;5087366;28;19993;-64
2023/06/16 05:41:57;;;;;;;;;;;17.10;99.90;;;;;;5095427;28;19989;-63
2023/06/16 05:44:23;;;;;;;;;;;17.10;99.90;;;;;;5096921;28;20004;-63
2023/06/16 05:46:48;;;;;;;;;;;17.10;99.90;;;;;;5095878;28;20028;-64
2023/06/16 05:49:14;;;;;;;;;;;17.20;99.90;;;;;;5097088;28;19989;-64
2023/06/16 05:51:40;;;;;;;;;;;17.20;99.90;;;;;;5097123;28;19982;-64
2023/06/16 05:54:05;;;;;;;;;;;17.20;99.90;;;;;;5097410;28;20469;-64
2023/06/16 05:56:31;;;;;;;;;;;17.30;99.90;;;;;;5097464;28;20500;-64
2023/06/16 05:58:56;;;;;;;;;;;17.40;99.90;;;;;;5097198;28;20388;-64
2023/06/16 06:01:22;;;;;;;;;;;17.40;99.90;;;;;;5097013;28;20072;-64
2023/06/16 06:03:47;;;;;;;;;;;17.40;99.90;;;;;;5096567;28;20017;-64
2023/06/16 06:06:13;;;;;;;;;;;17.40;99.90;;;;;;5096880;28;20017;-65
2023/06/16 06:08:39;;;;;;;;;;;17.50;99.90;;;;;;5096952;28;19989;-63
2023/06/16 06:11:06;;;;;;;;;;;17.50;99.90;;;;;;5090252;28;19996;-63
2023/06/16 06:13:32;;;;;;;;;;;17.60;99.90;;;;;;5076237;28;19985;-64
2023/06/16 06:15:58;;;;;;;;;;;17.60;99.90;;;;;;5076470;28;19988;-65
2023/06/16 06:18:23;;;;;;;;;;;17.60;99.90;;;;;;5076161;28;19981;-63
2023/06/16 06:20:50;;;;;;;;;;;17.50;99.90;;;;;;5079196;28;20040;-63
2023/06/16 06:23:15;;;;;;;;;;;17.60;99.90;;;;;;5081593;28;20014;-64
2023/06/16 06:25:42;;;;;;;;;;;17.60;99.90;;;;;;5083655;28;19985;-63
2023/06/16 06:28:08;;;;;;;;;;;17.70;99.90;;;;;;5083210;28;19985;-64
2023/06/16 06:30:33;;;;;;;;;;;17.80;99.90;;;;;;5093324;28;20431;-63
2023/06/16 06:33:00;;;;;;;;;;;17.90;99.90;;;;;;5094384;28;20096;-63
2023/06/16 06:35:25;;;;;;;;;;;17.90;99.90;;;;;;5094548;28;20074;-64
2023/06/16 06:37:51;;;;;;;;;;;18.00;99.90;;;;;;5094772;28;20009;-65
2023/06/16 06:40:17;;;;;;;;;;;18.00;99.90;;;;;;5094658;28;19985;-64
2023/06/16 06:42:42;;;;;;;;;;;18.10;99.90;;;;;;5094891;28;20079;-65
2023/06/16 06:45:10;;;;;;;;;;;18.30;99.90;;;;;;5094596;28;20027;-65
2023/06/16 06:47:36;;;;;;;;;;;18.50;99.90;;;;;;5091833;28;20390;-63
2023/06/16 06:50:03;;;;;;;;;;;18.50;99.90;;;;;;5077921;28;20080;-65
2023/06/16 06:52:29;;;;;;;;;;;18.60;99.90;;;;;;5075760;28;19982;-65
2023/06/16 06:54:56;;;;;;;;;;;18.80;99.90;;;;;;5075642;28;19982;-64
2023/06/16 06:57:22;;;;;;;;;;;18.80;99.90;;;;;;5075608;28;19996;-64
2023/06/16 06:59:48;;;;;;;;;;;18.80;99.90;;;;;;5075833;28;19982;-63
2023/06/16 07:02:13;;;;;;;;;;;18.80;99.90;;;;;;5075379;28;19981;-64
2023/06/16 07:04:39;;;;;;;;;;;18.80;99.90;;;;;;5075485;28;20039;-64
2023/06/16 07:07:06;;;;;;;;;;;18.70;99.90;;;;;;5075291;28;20016;-64
2023/06/16 07:09:32;;;;;;;;;;;18.70;99.90;;;;;;5075193;28;19982;-63
2023/06/16 07:11:57;;;;;;;;;;;18.90;99.90;;;;;;5082979;28;20030;-64
2023/06/16 07:14:23;;;;;;;;;;;18.80;99.90;;;;;;5092223;28;19981;-64
2023/06/16 07:16:49;;;;;;;;;;;18.80;99.90;;;;;;5093440;28;19981;-64
2023/06/16 07:19:14;;;;;;;;;;;18.70;99.90;;;;;;5095280;28;20044;-64
2023/06/16 07:21:40;;;;;;;;;;;18.80;99.90;;;;;;5095532;28;20024;-63
2023/06/16 07:24:06;;;;;;;;;;;18.80;99.90;;;;;;5095324;28;20454;-65
2023/06/16 07:26:32;;;;;;;;;;;18.90;99.90;;;;;;5094637;28;20451;-64
2023/06/16 07:28:59;;;;;;;;;;;18.90;99.90;;;;;;5095510;28;19981;-65
2023/06/16 07:31:24;;;;;;;;;;;19.00;99.90;;;;;;5095251;28;19988;-64
2023/06/16 07:33:50;;;;;;;;;;;19.10;99.90;;;;;;5095212;28;20447;-65
2023/06/16 07:36:15;;;;;;;;;;;19.10;99.90;;;;;;5095047;28;19988;-63
2023/06/16 07:38:41;;;;;;;;;;;19.00;99.90;;;;;;5094919;28;20414;-63
2023/06/16 07:41:07;;;;;;;;;;;18.90;99.90;;;;;;5094869;28;19981;-64
2023/06/16 07:43:33;;;;;;;;;;;18.90;99.90;;;;;;5095033;28;19985;-64
2023/06/16 07:45:59;;;;;;;;;;;19.00;99.90;;;;;;5095015;28;20005;-63
2023/06/16 07:48:24;;;;;;;;;;;19.00;99.90;;;;;;5093757;28;19981;-63
2023/06/16 07:50:50;;;;;;;;;;;19.20;99.90;;;;;;5094276;28;19989;-64
2023/06/16 07:53:16;;;;;;;;;;;19.30;99.90;;;;;;5094983;28;19981;-64
2023/06/16 07:55:41;;;;;;;;;;;19.40;99.90;;;;;;5094970;28;19988;-65
2023/06/16 07:58:07;;;;;;;;;;;19.40;99.90;;;;;;5094336;28;19988;-65
2023/06/16 08:00:32;;;;;;;;;;;19.40;99.90;;;;;;5094601;28;19981;-63
2023/06/16 08:02:58;;;;;;;;;;;19.50;99.90;;;;;;5092758;28;20107;-65
2023/06/16 08:05:24;;;;;;;;;;;19.60;99.90;;;;;;5094518;28;19997;-64
2023/06/16 08:07:49;;;;;;;;;;;19.50;99.90;;;;;;5094541;28;20463;-63
2023/06/16 08:10:20;;;;;;;;;;;19.60;99.90;;;;;;5094737;28;20027;-65
2023/06/16 08:12:51;;;;;;;;;;;19.70;99.90;;;;;;5093872;28;20031;-63
2023/06/16 08:15:18;;;;;;;;;;;19.80;99.90;;;;;;5094252;28;19985;-63
2023/06/16 08:17:44;;;;;;;;;;;19.70;99.90;;;;;;5093357;28;19981;-64
2023/06/16 08:20:10;;;;;;;;;;;19.60;99.90;;;;;;5094195;28;20393;-64
2023/06/16 08:22:36;;;;;;;;;;;19.80;99.90;;;;;;5094049;28;19984;-63
2023/06/16 08:25:02;;;;;;;;;;;19.70;99.90;;;;;;5094256;28;19981;-63
2023/06/16 08:27:27;;;;;;;;;;;19.70;99.90;;;;;;5093485;28;20005;-64
2023/06/16 08:29:53;;;;;;;;;;;19.70;99.90;;;;;;5093695;28;20135;-64
2023/06/16 08:32:19;;;;;;;;;;;19.70;99.90;;;;;;5094238;28;19988;-65
2023/06/16 08:34:45;;;;;;;;;;;19.60;99.90;;;;;;5094339;28;20068;-65
2023/06/16 08:37:10;;;;;;;;;;;19.70;99.90;;;;;;5094258;28;19985;-63
2023/06/16 08:39:36;;;;;;;;;;;19.70;99.90;;;;;;5093299;28;20049;-64
2023/06/16 08:42:02;;;;;;;;;;;19.70;99.90;;;;;;5093993;28;20445;-64
2023/06/16 08:44:28;;;;;;;;;;;19.70;99.90;;;;;;5092207;28;19989;-64
2023/06/16 08:46:54;;;;;;;;;;;19.60;99.90;;;;;;5092107;28;20009;-63
2023/06/16 08:49:19;;;;;;;;;;;19.70;99.90;;;;;;5092083;28;19981;-65
2023/06/16 08:51:49;;;;;;;;;;;19.50;99.90;;;;;;5091711;28;19985;-64
2023/06/16 08:54:18;;;;;;;;;;;19.40;99.90;;;;;;5091336;28;19985;-64
2023/06/16 08:56:43;;;;;;;;;;;19.30;99.90;;;;;;5092739;28;19985;-65
2023/06/16 08:59:11;;;;;;;;;;;19.30;99.90;;;;;;5092341;28;19985;-64
2023/06/16 09:01:39;;;;;;;;;;;19.20;99.90;;;;;;5092677;28;20528;-65
2023/06/16 09:04:13;;;;;;;;;;;19.10;99.90;;;;;;5092469;28;20024;-65
2023/06/16 09:06:47;;;;;;;;;;;19.20;99.90;;;;;;5092275;28;20115;-63
2023/06/16 09:09:13;;;;;;;;;;;19.30;99.90;;;;;;5093756;28;19995;-64
2023/06/16 09:11:39;;;;;;;;;;;19.40;99.90;;;;;;5093832;28;20344;-64
2023/06/16 09:14:10;;;;;;;;;;;19.40;99.90;;;;;;5093924;28;19985;-64
2023/06/16 09:16:37;;;;;;;;;;;19.40;99.90;;;;;;5093583;28;19985;-64
2023/06/16 09:19:09;;;;;;;;;;;19.40;99.90;;;;;;5093513;28;19981;-64
2023/06/16 09:21:35;;;;;;;;;;;19.40;99.90;;;;;;5093536;28;19989;-64
2023/06/16 09:24:01;;;;;;;;;;;19.30;99.90;;;;;;5093821;28;19988;-66
2023/06/16 09:26:35;;;;;;;;;;;19.20;99.90;;;;;;5093660;28;20005;-66
2023/06/16 09:29:02;;;;;;;;;;;19.10;99.90;;;;;;5093548;28;19992;-65
2023/06/16 09:31:28;;;;;;;;;;;19.10;99.90;;;;;;5093709;28;19981;-64
2023/06/16 09:34:02;;;;;;;;;;;19.10;99.90;;;;;;5093700;28;19988;-64
2023/06/16 09:36:28;;;;;;;;;;;19.20;99.90;;;;;;5093371;28;19980;-63
2023/06/16 09:38:54;;;;;;;;;;;19.20;99.90;;;;;;5093900;28;20071;-64
2023/06/16 09:41:19;;;;;;;;;;;19.30;99.90;;;;;;5093268;28;19981;-65
2023/06/16 09:43:45;;;;;;;;;;;19.20;99.90;;;;;;5092526;28;20428;-64
2023/06/16 09:46:12;;;;;;;;;;;19.20;99.90;;;;;;5092694;28;20012;-67
2023/06/16 09:48:44;;;;;;;;;;;19.10;99.90;;;;;;5092643;28;20069;-65
2023/06/16 09:51:10;;;;;;;;;;;19.20;99.90;;;;;;5092306;28;20034;-65
2023/06/16 09:53:37;;;;;;;;;;;19.00;99.90;;;;;;5092866;28;19985;-66
2023/06/16 09:56:05;;;;;;;;;;;19.00;99.90;;;;;;5091580;28;19985;-65
2023/06/16 09:58:30;;;;;;;;;;;18.90;99.90;;;;;;5091046;28;19989;-64
2023/06/16 10:00:56;;;;;;;;;;;19.00;99.90;;;;;;5093205;28;19994;-65
2023/06/16 10:03:22;;;;;;;;;;;19.10;99.90;;;;;;5092984;28;20016;-64
2023/06/16 10:05:50;;;;;;;;;;;19.10;99.90;;;;;;5094871;28;20460;-65
2023/06/16 10:08:17;;;;;;;;;;;19.10;99.90;;;;;;5095664;28;20135;-65
2023/06/16 10:10:44;;;;;;;;;;;19.20;99.90;;;;;;5096688;28;20458;-66
2023/06/16 10:13:10;;;;;;;;;;;19.20;99.90;;;;;;5096912;28;20030;-64
2023/06/16 10:15:40;;;;;;;;;;;19.10;99.90;;;;;;5097478;28;19985;-64
2023/06/16 10:18:07;;;;;;;;;;;19.10;99.90;;;;;;5096689;28;19985;-65
2023/06/16 10:20:33;;;;;;;;;;;18.90;99.90;;;;;;5096447;28;19985;-65
2023/06/16 10:22:59;;;;;;;;;;;18.90;99.90;;;;;;5096783;28;20035;-64
2023/06/16 10:25:25;;;;;;;;;;;19.00;99.90;;;;;;5096603;28;20046;-64
2023/06/16 10:27:51;;;;;;;;;;;19.00;99.90;;;;;;5096495;28;20462;-65
2023/06/16 10:30:18;;;;;;;;;;;19.00;99.90;;;;;;5096323;28;19982;-64
2023/06/16 10:32:52;;;;;;;;;;;18.90;99.90;;;;;;5096646;28;19992;-64
2023/06/16 10:35:18;;;;;;;;;;;19.00;99.90;;;;;;5095957;28;20036;-65
2023/06/16 10:37:55;;;;;;;;;;;19.00;99.90;;;;;;5096115;28;20397;-64
2023/06/16 10:40:22;;;;;;;;;;;19.10;99.90;;;;;;5095986;28;20366;-64
2023/06/16 10:42:48;;;;;;;;;;;19.10;99.90;;;;;;5095924;28;20024;-65
2023/06/16 10:45:24;;;;;;;;;;;19.00;99.90;;;;;;5096002;28;20071;-65
2023/06/16 10:47:57;;;;;;;;;;;19.00;99.90;;;;;;5096110;28;20508;-64
2023/06/16 10:50:30;;;;;;;;;;;18.90;99.90;;;;;;5095854;28;19981;-66
2023/06/16 10:52:56;;;;;;;;;;;19.00;99.90;;;;;;5095581;28;20462;-65
2023/06/16 10:55:22;;;;;;;;;;;18.90;99.90;;;;;;5094748;28;19989;-64
2023/06/16 10:58:01;;;;;;;;;;;18.80;99.90;;;;;;5092873;28;20498;-66
2023/06/16 11:00:32;;;;;;;;;;;18.70;99.90;;;;;;5092854;28;20036;-63
2023/06/16 11:03:03;;;;;;;;;;;18.70;99.90;;;;;;5093318;28;20548;-64
2023/06/16 11:05:41;;;;;;;;;;;18.70;99.90;;;;;;5094335;28;19997;-64
2023/06/16 11:08:08;;;;;;;;;;;18.70;99.90;;;;;;5094025;28;20306;-64
2023/06/16 11:10:51;;;;;;;;;;;18.80;99.90;;;;;;5093497;28;20030;-63
2023/06/16 11:13:25;;;;;;;;;;;18.90;99.90;;;;;;5094749;28;19985;-64
2023/06/16 11:15:52;;;;;;;;;;;19.00;99.90;;;;;;5094521;28;19989;-65
2023/06/16 11:18:22;;;;;;;;;;;19.00;99.90;;;;;;5093665;28;19981;-64
2023/06/16 11:20:48;;;;;;;;;;;19.00;99.90;;;;;;5094376;28;20032;-65
2023/06/16 11:23:13;;;;;;;;;;;19.10;99.90;;;;;;5094740;28;19981;-64
2023/06/16 11:25:39;;;;;;;;;;;19.10;99.90;;;;;;5094625;28;20006;-65
2023/06/16 11:28:05;;;;;;;;;;;19.10;99.90;;;;;;5093538;28;20053;-65
2023/06/16 11:30:30;;;;;;;;;;;19.20;99.90;;;;;;5093555;28;20355;-64
2023/06/16 11:32:57;;;;;;;;;;;19.20;99.90;;;;;;5094139;28;19993;-65
2023/06/16 11:35:29;;;;;;;;;;;19.20;99.90;;;;;;5093569;28;19981;-64
2023/06/16 11:37:57;;;;;;;;;;;19.20;99.90;;;;;;5093585;28;20032;-65
2023/06/16 11:40:23;;;;;;;;;;;19.20;99.90;;;;;;5094222;28;20367;-64
2023/06/16 11:42:59;;;;;;;;;;;19.30;99.90;;;;;;5094869;28;20047;-64
2023/06/16 11:45:37;;;;;;;;;;;19.30;99.90;;;;;;5095123;28;20071;-65
2023/06/16 11:48:03;;;;;;;;;;;19.20;99.90;;;;;;5093986;28;20544;-65
2023/06/16 11:50:29;;;;;;;;;;;19.20;99.90;;;;;;5093813;28;19985;-65
2023/06/16 11:52:55;;;;;;;;;;;19.10;99.90;;;;;;5094727;28;20466;-64
2023/06/16 11:55:21;;;;;;;;;;;19.20;99.90;;;;;;5095039;28;20054;-65
2023/06/16 11:57:47;;;;;;;;;;;19.30;99.90;;;;;;5094963;28;19988;-65
2023/06/16 12:00:13;;;;;;;;;;;19.20;99.90;;;;;;5094744;28;20410;-64
2023/06/16 12:02:39;;;;;;;;;;;19.30;99.90;;;;;;5093411;28;20553;-65
2023/06/16 12:05:07;;;;;;;;;;;19.10;99.90;;;;;;5092837;28;19985;-64
2023/06/16 12:07:33;;;;;;;;;;;19.20;99.90;;;;;;5092493;28;20467;-64
2023/06/16 12:10:01;;;;;;;;;;;19.30;99.90;;;;;;5093675;28;19988;-64
2023/06/16 12:12:29;;;;;;;;;;;19.40;99.90;;;;;;5094052;28;19985;-65
2023/06/16 12:14:56;;;;;;;;;;;19.50;99.90;;;;;;5094349;28;19985;-64
2023/06/16 12:17:25;;;;;;;;;;;19.50;99.90;;;;;;5094533;28;19985;-63
2023/06/16 12:19:52;;;;;;;;;;;19.50;99.90;;;;;;5094569;28;20358;-64
2023/06/16 12:22:17;;;;;;;;;;;19.50;99.90;;;;;;5094511;28;19985;-65
2023/06/16 12:24:43;;;;;;;;;;;19.60;99.90;;;;;;5094426;28;20352;-65
2023/06/16 12:27:09;;;;;;;;;;;19.70;99.90;;;;;;5094429;28;20474;-65
2023/06/16 12:29:35;;;;;;;;;;;19.70;99.90;;;;;;5093724;28;19989;-66
2023/06/16 12:32:03;;;;;;;;;;;19.70;99.90;;;;;;5094258;28;19985;-65
2023/06/16 12:34:30;;;;;;;;;;;19.70;99.90;;;;;;5094384;28;20007;-64
2023/06/16 12:37:01;;;;;;;;;;;19.70;99.90;;;;;;5094080;28;19981;-64
2023/06/16 12:39:27;;;;;;;;;;;19.80;99.90;;;;;;5094215;28;19982;-65
2023/06/16 12:42:03;;;;;;;;;;;19.90;99.90;;;;;;5094256;28;20027;-64
2023/06/16 12:44:44;;;;;;;;;;;20.10;99.90;;;;;;5094378;28;20419;-64
2023/06/16 12:47:10;;;;;;;;;;;20.20;99.90;;;;;;5094071;28;20016;-64
2023/06/16 12:49:36;;;;;;;;;;;20.20;99.90;;;;;;5093904;28;20355;-64
2023/06/16 12:52:01;;;;;;;;;;;20.30;99.90;;;;;;5093940;28;19981;-65
2023/06/16 12:54:27;;;;;;;;;;;20.40;99.90;;;;;;5093990;28;19992;-65
2023/06/16 12:56:53;;;;;;;;;;;20.50;99.90;;;;;;5093953;28;20020;-64
2023/06/16 12:59:19;;;;;;;;;;;20.60;99.90;;;;;;5093857;28;19981;-64
2023/06/16 13:01:45;;;;;;;;;;;20.70;99.90;;;;;;5094040;28;19989;-65
2023/06/16 13:04:11;;;;;;;;;;;20.70;99.90;;;;;;5093544;28;20021;-64
2023/06/16 13:06:36;;;;;;;;;;;20.80;99.90;;;;;;5093676;28;20009;-64
2023/06/16 13:09:02;;;;;;;;;;;20.80;99.90;;;;;;5094092;28;20078;-65
2023/06/16 13:11:27;;;;;;;;;;;21.00;99.90;;;;;;5093809;28;19981;-64
2023/06/16 13:13:53;;;;;;;;;;;21.10;99.90;;;;;;5093976;28;20028;-65
2023/06/16 13:16:19;;;;;;;;;;;21.20;99.90;;;;;;5093811;28;19988;-66
2023/06/16 13:18:45;;;;;;;;;;;21.30;99.90;;;;;;5093784;28;19981;-64
2023/06/16 13:21:11;;;;;;;;;;;21.40;99.90;;;;;;5093758;28;20038;-63
2023/06/16 13:23:42;;;;;;;;;;;21.40;99.90;;;;;;5093611;28;20035;-65
2023/06/16 13:26:09;;;;;;;;;;;21.60;99.90;;;;;;5093895;28;20056;-66
2023/06/16 13:28:37;;;;;;;;;;;21.80;99.90;;;;;;5093556;28;20013;-64
2023/06/16 13:31:03;;;;;;;;;;;21.90;99.90;;;;;;5093616;28;20030;-66
2023/06/16 13:33:28;;;;;;;;;;;22.00;99.90;;;;;;5093431;28;19981;-64
2023/06/16 13:35:54;;;;;;;;;;;22.10;99.90;;;;;;5093495;28;19981;-65
2023/06/16 13:38:19;;;;;;;;;;;22.00;99.90;;;;;;5093500;28;20003;-66
2023/06/16 13:40:45;;;;;;;;;;;22.10;99.90;;;;;;5095691;28;19980;-65
2023/06/16 13:43:11;;;;;;;;;;;22.10;99.90;;;;;;5097808;28;20428;-65
2023/06/16 13:45:38;;;;;;;;;;;22.00;99.90;;;;;;5097388;28;19981;-63
2023/06/16 13:48:03;;;;;;;;;;;22.00;99.90;;;;;;5097279;28;20087;-64
2023/06/16 13:50:29;;;;;;;;;;;22.00;99.90;;;;;;5097344;28;20388;-63
2023/06/16 13:52:54;;;;;;;;;;;21.90;99.90;;;;;;5097221;28;20343;-63
2023/06/16 13:55:20;;;;;;;;;;;21.90;99.90;;;;;;5097421;28;19985;-65
2023/06/16 13:57:46;;;;;;;;;;;21.90;99.90;;;;;;5097347;28;20126;-65
2023/06/16 14:00:12;;;;;;;;;;;21.90;99.90;;;;;;5097116;28;20362;-63
2023/06/16 14:02:37;;;;;;;;;;;21.90;99.90;;;;;;5096944;28;20021;-64
2023/06/16 14:05:03;;;;;;;;;;;22.00;99.90;;;;;;5097158;28;19981;-65
2023/06/16 14:07:28;;;;;;;;;;;22.00;99.90;;;;;;5096900;28;20371;-63
2023/06/16 14:09:54;;;;;;;;;;;21.90;99.90;;;;;;5096929;28;20435;-64
2023/06/16 14:12:20;;;;;;;;;;;21.90;99.90;;;;;;5096957;28;20004;-64
2023/06/16 14:14:45;;;;;;;;;;;21.80;99.90;;;;;;5097018;28;19985;-64